Terminal Aerodrome Forecast
Issued by NWS

Home | Current Version | Previous Version | Text Only | Print | Product List | Glossary On
Versions: 1 2 3 4 5 6 7 8 9 10 11 12 13 14 15 16 17 18 19 20 21
000
FTUS43 KGRR 302107 AAB
TAFBTL
TAF AMD
KBTL 302107Z 3021/0118 26012KT P6SM SCT030
     FM302300 31010KT P6SM BKN015
     FM011100 30007KT P6SM OVC007
     FM011500 31008KT P6SM BKN025=

USA.gov is the U.S. government's official web portal to all federal, state and local government web resources and services.